Time;durP1;ratioP1;P1;durP2;ratioP2;P2;SDS_P1;SDS_P2;PMS_P1;PMS_P2;Temp;Humidity;BMP_temperature;BMP_pressure;BME280_temperature;BME280_humidity;BME280_pressure;Samples;Min_cycle;Max_cycle;Signal;HPM_P1;HPM_P2
2023/07/27 00:00:02;;;;;;;10.50;5.63;;;;;;;;;;5095249;28;20056;-79
2023/07/27 00:02:28;;;;;;;9.90;6.00;;;;;;;;;;5115337;28;20095;-80
2023/07/27 00:04:54;;;;;;;8.95;5.57;;;;;;;;;;5089384;28;20040;-79
2023/07/27 00:07:20;;;;;;;10.27;6.32;;;;;;;;;;5077811;28;20158;-79
2023/07/27 00:09:46;;;;;;;12.00;6.35;;;;;;;;;;5095659;28;20059;-79
2023/07/27 00:12:12;;;;;;;9.20;5.80;;;;;;;;;;5077502;28;20043;-79
2023/07/27 00:14:38;;;;;;;10.05;6.00;;;;;;;;;;5095675;28;20409;-79
2023/07/27 00:17:05;;;;;;;10.57;5.88;;;;;;;;;;5084668;28;20392;-80
2023/07/27 00:19:31;;;;;;;10.57;6.25;;;;;;;;;;5115473;28;20494;-79
2023/07/27 00:21:57;;;;;;;9.82;5.97;;;;;;;;;;5097566;28;20051;-79
2023/07/27 00:24:23;;;;;;;8.55;6.15;;;;;;;;;;5105341;28;20530;-80
2023/07/27 00:26:49;;;;;;;9.70;6.07;;;;;;;;;;5095038;28;20083;-80
2023/07/27 00:29:16;;;;;;;11.05;6.65;;;;;;;;;;5094562;28;20036;-81
2023/07/27 00:31:42;;;;;;;13.63;7.07;;;;;;;;;;5094612;28;20137;-80
2023/07/27 00:34:09;;;;;;;10.85;6.63;;;;;;;;;;5094446;28;20040;-80
2023/07/27 00:36:35;;;;;;;10.60;6.70;;;;;;;;;;5094752;28;20040;-80
2023/07/27 00:39:04;;;;;;;10.32;7.13;;;;;;;;;;5077284;28;20073;-80
2023/07/27 00:41:30;;;;;;;10.25;6.80;;;;;;;;;;5076859;28;20137;-81
2023/07/27 00:43:56;;;;;;;11.80;6.88;;;;;;;;;;5094549;28;20048;-80
2023/07/27 00:46:22;;;;;;;9.30;5.93;;;;;;;;;;5094118;28;20059;-81
2023/07/27 00:48:49;;;;;;;11.10;6.30;;;;;;;;;;5094406;28;20048;-80
2023/07/27 00:51:15;;;;;;;9.85;6.40;;;;;;;;;;5076404;28;20040;-81
2023/07/27 00:53:41;;;;;;;8.75;6.25;;;;;;;;;;5076890;28;20044;-80
2023/07/27 00:56:07;;;;;;;11.90;6.40;;;;;;;;;;5094008;28;20041;-80
2023/07/27 00:58:33;;;;;;;10.93;6.25;;;;;;;;;;5076046;28;20594;-81
2023/07/27 01:01:02;;;;;;;10.13;6.13;;;;;;;;;;5076187;28;20036;-80
2023/07/27 01:03:29;;;;;;;10.75;6.32;;;;;;;;;;5093515;28;20523;-80
2023/07/27 01:05:55;;;;;;;10.60;6.40;;;;;;;;;;5059396;28;20083;-81
2023/07/27 01:08:21;;;;;;;9.38;5.63;;;;;;;;;;5076285;28;20048;-80
2023/07/27 01:11:06;;;;;;;7.90;5.70;;;;;;;;;;5094190;28;20084;-81
2023/07/27 01:13:36;;;;;;;11.30;6.18;;;;;;;;;;5093465;28;20040;-80
2023/07/27 01:16:08;;;;;;;8.38;5.80;;;;;;;;;;5094577;28;20044;-79
2023/07/27 01:18:41;;;;;;;10.20;6.03;;;;;;;;;;5094259;28;20093;-80
2023/07/27 01:21:18;;;;;;;8.35;5.78;;;;;;;;;;5094225;28;20074;-80
2023/07/27 01:24:02;;;;;;;10.50;5.78;;;;;;;;;;5093835;28;20040;-79
2023/07/27 01:26:34;;;;;;;10.63;6.10;;;;;;;;;;5094192;28;20141;-80
2023/07/27 01:29:13;;;;;;;9.57;6.03;;;;;;;;;;5093639;28;20541;-80
2023/07/27 01:31:44;;;;;;;7.82;5.68;;;;;;;;;;5093709;28;20048;-80
2023/07/27 01:34:29;;;;;;;8.80;5.90;;;;;;;;;;5093541;28;20108;-79
2023/07/27 01:36:57;;;;;;;8.85;5.78;;;;;;;;;;5093910;28;20044;-80
2023/07/27 01:39:25;;;;;;;9.50;5.50;;;;;;;;;;5093326;28;20036;-80
2023/07/27 01:41:51;;;;;;;8.75;5.82;;;;;;;;;;5075817;28;20040;-80
2023/07/27 01:44:18;;;;;;;8.38;5.50;;;;;;;;;;5071259;28;20106;-79
2023/07/27 01:46:45;;;;;;;9.35;5.78;;;;;;;;;;5073498;28;20060;-80
2023/07/27 01:49:12;;;;;;;8.35;5.68;;;;;;;;;;5072589;28;20045;-81
2023/07/27 01:51:39;;;;;;;7.95;5.55;;;;;;;;;;5055291;28;20127;-80
2023/07/27 01:54:08;;;;;;;8.75;5.75;;;;;;;;;;5073240;28;20067;-80
2023/07/27 01:56:34;;;;;;;10.70;5.82;;;;;;;;;;5071739;28;20119;-80
2023/07/27 01:59:00;;;;;;;9.57;5.68;;;;;;;;;;5053886;28;20040;-80
2023/07/27 02:01:27;;;;;;;9.10;6.10;;;;;;;;;;5074951;28;20055;-80
2023/07/27 02:03:54;;;;;;;10.27;6.03;;;;;;;;;;5092614;28;20127;-80
2023/07/27 02:06:20;;;;;;;9.30;5.47;;;;;;;;;;5097639;28;20044;-80
2023/07/27 02:08:46;;;;;;;10.15;5.75;;;;;;;;;;5077810;28;20083;-80
2023/07/27 02:11:13;;;;;;;8.70;6.03;;;;;;;;;;5083981;28;20093;-80
2023/07/27 02:13:43;;;;;;;9.10;5.50;;;;;;;;;;5071584;28;20083;-79
2023/07/27 02:16:13;;;;;;;9.65;5.65;;;;;;;;;;5071492;28;20040;-80
2023/07/27 02:18:39;;;;;;;8.32;5.85;;;;;;;;;;5072987;28;20053;-80
2023/07/27 02:21:06;;;;;;;9.43;5.88;;;;;;;;;;5073112;28;20482;-80
2023/07/27 02:23:32;;;;;;;8.15;5.18;;;;;;;;;;5066496;28;20103;-79
2023/07/27 02:25:58;;;;;;;10.18;5.82;;;;;;;;;;5066144;28;20087;-80
2023/07/27 02:28:28;;;;;;;8.68;5.78;;;;;;;;;;5072209;28;20052;-79
2023/07/27 02:30:54;;;;;;;8.07;5.63;;;;;;;;;;5073102;28;20108;-80
2023/07/27 02:33:20;;;;;;;10.60;6.00;;;;;;;;;;5071829;28;20492;-81
2023/07/27 02:35:46;;;;;;;8.13;5.32;;;;;;;;;;5071812;28;20036;-81
2023/07/27 02:38:13;;;;;;;10.35;5.63;;;;;;;;;;5077468;28;20055;-79
2023/07/27 02:40:39;;;;;;;8.15;5.32;;;;;;;;;;5075750;28;20052;-81
2023/07/27 02:43:05;;;;;;;10.02;5.50;;;;;;;;;;5071694;28;20141;-80
2023/07/27 02:45:33;;;;;;;7.97;5.15;;;;;;;;;;5086031;28;20056;-80
2023/07/27 02:47:59;;;;;;;7.80;5.03;;;;;;;;;;5092477;28;20115;-80
2023/07/27 02:50:25;;;;;;;9.95;5.80;;;;;;;;;;5057422;28;20230;-80
2023/07/27 02:52:51;;;;;;;8.60;5.22;;;;;;;;;;5074240;28;20105;-80
2023/07/27 02:55:17;;;;;;;8.90;5.68;;;;;;;;;;5092401;28;20044;-80
2023/07/27 02:57:45;;;;;;;8.65;5.40;;;;;;;;;;5092726;28;20055;-80
2023/07/27 03:00:11;;;;;;;8.70;5.85;;;;;;;;;;5092607;28;20044;-80
2023/07/27 03:02:37;;;;;;;10.35;5.53;;;;;;;;;;5091939;28;20123;-79
2023/07/27 03:05:05;;;;;;;7.68;5.60;;;;;;;;;;5092514;28;20552;-80
2023/07/27 03:07:31;;;;;;;9.13;5.60;;;;;;;;;;5092589;28;20084;-80
2023/07/27 03:09:57;;;;;;;10.15;5.70;;;;;;;;;;5090715;28;20389;-80
2023/07/27 03:12:23;;;;;;;9.20;5.38;;;;;;;;;;5072846;28;20039;-80
2023/07/27 03:14:50;;;;;;;8.43;5.50;;;;;;;;;;5071800;28;20040;-80
2023/07/27 03:17:16;;;;;;;8.55;5.68;;;;;;;;;;5092380;28;20050;-80
2023/07/27 03:19:42;;;;;;;9.30;5.78;;;;;;;;;;5092384;28;20036;-81
2023/07/27 03:22:09;;;;;;;8.10;6.05;;;;;;;;;;5092176;28;20048;-80
2023/07/27 03:24:35;;;;;;;7.07;5.32;;;;;;;;;;5091524;28;20408;-80
2023/07/27 03:27:02;;;;;;;9.82;5.53;;;;;;;;;;5093496;28;20040;-80
2023/07/27 03:29:28;;;;;;;9.65;5.95;;;;;;;;;;5076992;28;20048;-80
2023/07/27 03:31:54;;;;;;;7.93;5.72;;;;;;;;;;5078086;28;20044;-80
2023/07/27 03:34:21;;;;;;;9.05;5.55;;;;;;;;;;5095828;28;20075;-80
2023/07/27 03:36:47;;;;;;;8.07;5.30;;;;;;;;;;5061834;28;20043;-79
2023/07/27 03:39:13;;;;;;;7.90;5.53;;;;;;;;;;5078163;28;20067;-80
2023/07/27 03:41:39;;;;;;;8.73;5.90;;;;;;;;;;5096046;28;20040;-80
2023/07/27 03:44:05;;;;;;;10.43;5.63;;;;;;;;;;5095641;28;20040;-80
2023/07/27 03:46:31;;;;;;;9.07;5.43;;;;;;;;;;5096075;28;20048;-81
2023/07/27 03:48:57;;;;;;;10.15;5.90;;;;;;;;;;5077798;28;20044;-81
2023/07/27 03:51:24;;;;;;;10.65;6.00;;;;;;;;;;5095658;28;20561;-81
2023/07/27 03:53:50;;;;;;;7.88;5.60;;;;;;;;;;5094600;28;20482;-80
2023/07/27 03:56:16;;;;;;;9.10;6.15;;;;;;;;;;5093959;28;20044;-80
2023/07/27 03:58:42;;;;;;;9.85;6.00;;;;;;;;;;5095076;28;20048;-80
2023/07/27 04:01:08;;;;;;;10.18;5.93;;;;;;;;;;5095806;28;20048;-79
2023/07/27 04:03:34;;;;;;;9.73;6.07;;;;;;;;;;5098123;28;20044;-80
2023/07/27 04:06:00;;;;;;;10.98;6.13;;;;;;;;;;5108683;28;20115;-80
2023/07/27 04:08:27;;;;;;;10.38;6.28;;;;;;;;;;5095297;28;20091;-80
2023/07/27 04:10:53;;;;;;;9.93;6.50;;;;;;;;;;5077203;28;20059;-80
2023/07/27 04:13:19;;;;;;;9.60;6.35;;;;;;;;;;5095384;28;20052;-79
2023/07/27 04:15:45;;;;;;;11.20;6.93;;;;;;;;;;5095041;28;20097;-79
2023/07/27 04:18:11;;;;;;;11.07;7.22;;;;;;;;;;5077028;28;20044;-79
2023/07/27 04:20:37;;;;;;;10.63;7.10;;;;;;;;;;5095443;28;20043;-79
2023/07/27 04:23:03;;;;;;;10.35;7.00;;;;;;;;;;5095384;28;20460;-79
2023/07/27 04:25:29;;;;;;;10.27;7.35;;;;;;;;;;5076639;28;20040;-79
2023/07/27 04:27:55;;;;;;;10.25;7.13;;;;;;;;;;5077089;28;20066;-80
2023/07/27 04:30:21;;;;;;;13.45;7.35;;;;;;;;;;5094759;28;20032;-80
2023/07/27 04:32:48;;;;;;;12.77;7.78;;;;;;;;;;5094662;28;20491;-80
2023/07/27 04:35:14;;;;;;;10.35;7.22;;;;;;;;;;5076598;28;20087;-80
2023/07/27 04:37:40;;;;;;;11.32;7.00;;;;;;;;;;5093449;28;20044;-80
2023/07/27 04:40:06;;;;;;;11.10;7.43;;;;;;;;;;5094721;28;20122;-80
2023/07/27 04:42:33;;;;;;;14.30;8.38;;;;;;;;;;5094940;28;20118;-80
2023/07/27 04:44:59;;;;;;;12.38;7.90;;;;;;;;;;5094064;28;20047;-80
2023/07/27 04:47:25;;;;;;;13.85;9.13;;;;;;;;;;5076794;28;20079;-80
2023/07/27 04:49:51;;;;;;;12.95;8.73;;;;;;;;;;5094651;28;20040;-81
2023/07/27 04:52:17;;;;;;;14.77;9.75;;;;;;;;;;5075799;28;20127;-81
2023/07/27 04:54:43;;;;;;;13.43;9.05;;;;;;;;;;5075857;28;20044;-80
2023/07/27 04:57:09;;;;;;;14.65;9.32;;;;;;;;;;5093145;28;20040;-81
2023/07/27 04:59:35;;;;;;;15.90;9.60;;;;;;;;;;5073581;28;20047;-81
2023/07/27 05:02:04;;;;;;;12.15;9.07;;;;;;;;;;5076371;28;20390;-81
2023/07/27 05:04:30;;;;;;;14.18;9.23;;;;;;;;;;5076143;28;20047;-80
2023/07/27 05:06:56;;;;;;;13.57;9.45;;;;;;;;;;5074899;28;20048;-80
2023/07/27 05:09:23;;;;;;;13.43;8.75;;;;;;;;;;5093406;28;20044;-80
2023/07/27 05:11:49;;;;;;;15.73;9.50;;;;;;;;;;5094448;28;20179;-80
2023/07/27 05:14:15;;;;;;;13.60;9.02;;;;;;;;;;5075859;28;20052;-81
2023/07/27 05:16:41;;;;;;;14.68;9.45;;;;;;;;;;5074780;28;20048;-80
2023/07/27 05:19:07;;;;;;;12.20;8.93;;;;;;;;;;5093741;28;20036;-79
2023/07/27 05:21:33;;;;;;;15.25;9.55;;;;;;;;;;5075945;28;20089;-79
2023/07/27 05:23:59;;;;;;;14.98;9.82;;;;;;;;;;5069020;28;20070;-79
2023/07/27 05:26:25;;;;;;;17.02;10.57;;;;;;;;;;5077752;28;20044;-79
2023/07/27 05:28:51;;;;;;;17.35;10.68;;;;;;;;;;5094423;28;20474;-77
2023/07/27 05:31:18;;;;;;;15.82;9.63;;;;;;;;;;5118425;28;20020;-78
2023/07/27 05:33:44;;;;;;;15.00;9.20;;;;;;;;;;5116793;28;20064;-78
2023/07/27 05:36:10;;;;;;;15.80;9.57;;;;;;;;;;5096135;28;20040;-79
2023/07/27 05:38:36;;;;;;;12.60;8.93;;;;;;;;;;5057821;28;20413;-80
2023/07/27 05:41:02;;;;;;;12.93;8.63;;;;;;;;;;5092672;28;20503;-79
2023/07/27 05:43:29;;;;;;;13.45;8.55;;;;;;;;;;5092528;28;20047;-79
2023/07/27 05:45:55;;;;;;;14.93;8.75;;;;;;;;;;5095858;28;20044;-79
2023/07/27 05:48:22;;;;;;;13.90;8.52;;;;;;;;;;5099464;28;20456;-80
2023/07/27 05:50:48;;;;;;;12.35;8.32;;;;;;;;;;5096279;28;20062;-80
2023/07/27 05:53:14;;;;;;;12.00;7.53;;;;;;;;;;5096125;28;20051;-80
2023/07/27 05:55:40;;;;;;;10.77;7.50;;;;;;;;;;5114353;28;20059;-80
2023/07/27 05:58:07;;;;;;;12.43;8.38;;;;;;;;;;5096171;28;20055;-80
2023/07/27 06:00:33;;;;;;;12.57;8.45;;;;;;;;;;5096636;28;20119;-80
2023/07/27 06:02:59;;;;;;;11.90;8.45;;;;;;;;;;5093635;28;20051;-79
2023/07/27 06:05:25;;;;;;;13.27;8.20;;;;;;;;;;5093441;28;20048;-79
2023/07/27 06:07:51;;;;;;;12.80;8.32;;;;;;;;;;5093727;28;20047;-80
2023/07/27 06:10:17;;;;;;;11.02;7.60;;;;;;;;;;5092349;28;20044;-80
2023/07/27 06:12:44;;;;;;;10.82;7.85;;;;;;;;;;5092764;28;20127;-80
2023/07/27 06:15:10;;;;;;;13.25;8.18;;;;;;;;;;5093125;28;20093;-80
2023/07/27 06:17:39;;;;;;;12.25;8.77;;;;;;;;;;5090760;28;20052;-80
2023/07/27 06:20:05;;;;;;;14.43;8.88;;;;;;;;;;5073299;28;20047;-80
2023/07/27 06:22:32;;;;;;;11.82;7.90;;;;;;;;;;5092534;28;20048;-80
2023/07/27 06:24:58;;;;;;;12.18;7.93;;;;;;;;;;5091878;28;20044;-80
2023/07/27 06:27:24;;;;;;;11.10;7.82;;;;;;;;;;5097758;28;20433;-81
2023/07/27 06:29:50;;;;;;;10.40;7.95;;;;;;;;;;5111619;28;20047;-80
2023/07/27 06:32:16;;;;;;;10.98;7.68;;;;;;;;;;5082047;28;20440;-80
2023/07/27 06:34:42;;;;;;;10.57;6.88;;;;;;;;;;5056360;28;20033;-80
2023/07/27 06:37:08;;;;;;;11.25;6.90;;;;;;;;;;5091950;28;20081;-81
2023/07/27 06:39:35;;;;;;;10.40;7.07;;;;;;;;;;5057839;28;20097;-80
2023/07/27 06:42:01;;;;;;;8.57;6.80;;;;;;;;;;5074891;28;20143;-80
2023/07/27 06:44:27;;;;;;;9.57;6.63;;;;;;;;;;5092470;28;20070;-80
2023/07/27 06:46:53;;;;;;;11.02;6.50;;;;;;;;;;5092286;28;20101;-81
2023/07/27 06:49:19;;;;;;;10.10;6.40;;;;;;;;;;5067103;28;20039;-80
2023/07/27 06:51:46;;;;;;;10.73;7.20;;;;;;;;;;5113052;28;20067;-80
2023/07/27 06:54:12;;;;;;;10.68;6.70;;;;;;;;;;5097443;28;20059;-80
2023/07/27 06:56:38;;;;;;;10.88;6.28;;;;;;;;;;5092718;28;20044;-80
2023/07/27 06:59:04;;;;;;;8.48;6.35;;;;;;;;;;5074307;28;20059;-80
2023/07/27 07:01:30;;;;;;;9.10;6.43;;;;;;;;;;5076594;28;20040;-80
2023/07/27 07:03:56;;;;;;;10.63;6.03;;;;;;;;;;5096209;28;20048;-81
2023/07/27 07:06:22;;;;;;;7.90;6.10;;;;;;;;;;5091947;28;20570;-81
2023/07/27 07:08:48;;;;;;;9.32;5.68;;;;;;;;;;5096246;28;20096;-79
2023/07/27 07:11:15;;;;;;;8.93;5.70;;;;;;;;;;5078202;28;20044;-80
2023/07/27 07:13:42;;;;;;;9.43;6.22;;;;;;;;;;5078537;28;20458;-80
2023/07/27 07:16:08;;;;;;;8.57;6.20;;;;;;;;;;5096377;28;20052;-81
2023/07/27 07:18:34;;;;;;;8.85;6.07;;;;;;;;;;5096602;28;20063;-80
2023/07/27 07:21:00;;;;;;;12.80;6.03;;;;;;;;;;5080716;28;20438;-80
2023/07/27 07:23:26;;;;;;;10.98;5.97;;;;;;;;;;5112551;28;20072;-80
2023/07/27 07:25:52;;;;;;;10.18;5.93;;;;;;;;;;5068908;28;20044;-78
2023/07/27 07:28:18;;;;;;;9.73;6.25;;;;;;;;;;5103481;28;20054;-80
2023/07/27 07:30:45;;;;;;;9.15;6.78;;;;;;;;;;5116484;28;20074;-77
2023/07/27 07:33:11;;;;;;;7.95;5.43;;;;;;;;;;5096203;28;20044;-79
2023/07/27 07:35:39;;;;;;;6.30;5.18;;;;;;;;;;5061080;28;20044;-78
2023/07/27 07:38:06;;;;;;;7.85;5.05;;;;;;;;;;5095709;28;20388;-78
2023/07/27 07:40:32;;;;;;;7.95;5.35;;;;;;;;;;5077569;28;20044;-79
2023/07/27 07:42:58;;;;;;;9.20;6.15;;;;;;;;;;5077781;28;20048;-79
2023/07/27 07:45:25;;;;;;;7.43;5.45;;;;;;;;;;5095135;28;20527;-79
2023/07/27 07:47:51;;;;;;;7.47;5.32;;;;;;;;;;5095745;28;20080;-79
2023/07/27 07:50:17;;;;;;;8.00;5.47;;;;;;;;;;5095946;28;20044;-78
2023/07/27 07:52:46;;;;;;;10.10;5.72;;;;;;;;;;5095776;28;20036;-79
2023/07/27 07:55:13;;;;;;;7.43;5.05;;;;;;;;;;5095680;28;20040;-79
2023/07/27 07:57:39;;;;;;;6.57;5.00;;;;;;;;;;5076797;28;20404;-79
2023/07/27 08:00:05;;;;;;;7.07;4.90;;;;;;;;;;5090376;28;20501;-80
2023/07/27 08:02:31;;;;;;;7.10;4.65;;;;;;;;;;5095406;28;20048;-80
2023/07/27 08:04:57;;;;;;;6.45;4.75;;;;;;;;;;5094484;28;20043;-79
2023/07/27 08:07:23;;;;;;;7.28;4.57;;;;;;;;;;5109178;28;20039;-78
2023/07/27 08:09:50;;;;;;;6.32;4.53;;;;;;;;;;5097061;28;20079;-77
2023/07/27 08:12:16;;;;;;;5.90;4.32;;;;;;;;;;5056790;28;20082;-79
2023/07/27 08:14:42;;;;;;;7.53;4.40;;;;;;;;;;5056713;28;20123;-80
2023/07/27 08:17:08;;;;;;;6.03;4.20;;;;;;;;;;5057249;28;20076;-80
2023/07/27 08:19:34;;;;;;;5.45;4.40;;;;;;;;;;5056611;28;20101;-80
2023/07/27 08:22:02;;;;;;;6.43;4.22;;;;;;;;;;5075015;28;20036;-80
2023/07/27 08:24:28;;;;;;;7.00;4.57;;;;;;;;;;5085975;28;20078;-78
2023/07/27 08:26:54;;;;;;;5.95;4.20;;;;;;;;;;5076878;28;20040;-80
2023/07/27 08:29:20;;;;;;;6.43;4.20;;;;;;;;;;5076294;28;20044;-79
2023/07/27 08:31:46;;;;;;;4.70;3.88;;;;;;;;;;5077352;28;20124;-78
2023/07/27 08:34:13;;;;;;;5.30;3.90;;;;;;;;;;5114945;28;20035;-75
2023/07/27 08:36:39;;;;;;;4.75;3.83;;;;;;;;;;5106487;28;20044;-75
2023/07/27 08:39:05;;;;;;;4.63;3.28;;;;;;;;;;5076847;28;20431;-74
2023/07/27 08:41:31;;;;;;;4.97;3.30;;;;;;;;;;5093534;28;20056;-75
2023/07/27 08:43:58;;;;;;;4.50;3.10;;;;;;;;;;5093811;28;20040;-74
2023/07/27 08:46:24;;;;;;;5.05;3.28;;;;;;;;;;5075886;28;20051;-75
2023/07/27 08:48:52;;;;;;;3.95;3.20;;;;;;;;;;5093919;28;20098;-75
2023/07/27 08:51:18;;;;;;;4.07;3.30;;;;;;;;;;5093696;28;20047;-75
2023/07/27 08:53:44;;;;;;;5.43;3.25;;;;;;;;;;5097484;28;20096;-74
2023/07/27 08:56:10;;;;;;;4.18;2.88;;;;;;;;;;5080143;28;20055;-74
2023/07/27 08:58:37;;;;;;;6.28;3.42;;;;;;;;;;5096703;28;20374;-74
2023/07/27 09:01:03;;;;;;;6.55;3.15;;;;;;;;;;5096158;28;20130;-75
2023/07/27 09:03:29;;;;;;;5.53;3.20;;;;;;;;;;5095616;28;20036;-75
2023/07/27 09:05:59;;;;;;;7.78;3.70;;;;;;;;;;5113043;28;20039;-75
2023/07/27 09:08:29;;;;;;;4.82;3.35;;;;;;;;;;5086395;28;20044;-75
2023/07/27 09:10:55;;;;;;;5.75;3.50;;;;;;;;;;5077068;28;20036;-75
2023/07/27 09:13:21;;;;;;;5.50;3.78;;;;;;;;;;5093117;28;20075;-75
2023/07/27 09:15:50;;;;;;;8.10;3.78;;;;;;;;;;5110025;28;20044;-75
2023/07/27 09:18:16;;;;;;;6.72;3.50;;;;;;;;;;5103654;28;20044;-75
2023/07/27 09:20:43;;;;;;;4.93;3.65;;;;;;;;;;5093071;28;20399;-76
2023/07/27 09:23:09;;;;;;;6.35;3.33;;;;;;;;;;5107130;28;20135;-76
2023/07/27 09:25:39;;;;;;;4.80;3.30;;;;;;;;;;5069736;28;20040;-76
2023/07/27 09:28:06;;;;;;;5.38;3.00;;;;;;;;;;5110231;28;20435;-75
2023/07/27 09:30:35;;;;;;;6.07;2.75;;;;;;;;;;5093103;28;20044;-75
2023/07/27 09:33:05;;;;;;;5.90;3.05;;;;;;;;;;5091011;28;20040;-75
2023/07/27 09:35:36;;;;;;;4.07;2.67;;;;;;;;;;5086135;28;20043;-75
2023/07/27 09:38:02;;;;;;;3.95;2.85;;;;;;;;;;5113522;28;20048;-75
2023/07/27 09:40:33;;;;;;;4.75;2.47;;;;;;;;;;5094690;28;20036;-75
2023/07/27 09:43:06;;;;;;;3.28;2.72;;;;;;;;;;5092242;28;20412;-75
2023/07/27 09:45:37;;;;;;;5.57;3.03;;;;;;;;;;5070406;28;20088;-74
2023/07/27 09:48:03;;;;;;;5.50;3.20;;;;;;;;;;5053369;28;20095;-75
2023/07/27 09:50:30;;;;;;;4.35;3.20;;;;;;;;;;5072140;28;20048;-76
2023/07/27 09:52:57;;;;;;;5.22;3.35;;;;;;;;;;5055363;28;20047;-75
2023/07/27 09:55:25;;;;;;;4.25;2.95;;;;;;;;;;5054831;28;20047;-74
2023/07/27 09:57:52;;;;;;;4.60;2.90;;;;;;;;;;5072747;28;20055;-76
2023/07/27 10:00:19;;;;;;;5.25;3.20;;;;;;;;;;5073095;28;20043;-76
2023/07/27 10:02:45;;;;;;;4.38;3.08;;;;;;;;;;5073254;28;20170;-73
2023/07/27 10:05:11;;;;;;;3.95;3.10;;;;;;;;;;5072599;28;20040;-75
2023/07/27 10:07:37;;;;;;;3.30;2.70;;;;;;;;;;5076645;28;20108;-74
2023/07/27 10:10:22;;;;;;;5.32;2.83;;;;;;;;;;5092134;28;20500;-74
2023/07/27 10:12:48;;;;;;;3.60;2.70;;;;;;;;;;5071821;28;20441;-75
2023/07/27 10:15:28;;;;;;;4.47;3.10;;;;;;;;;;5092599;28;20419;-76
2023/07/27 10:17:58;;;;;;;4.82;2.95;;;;;;;;;;5092422;28;20403;-75
2023/07/27 10:20:26;;;;;;;3.97;2.83;;;;;;;;;;5092087;28;20139;-75
2023/07/27 10:22:53;;;;;;;4.93;3.10;;;;;;;;;;5074603;28;20052;-75
2023/07/27 10:25:19;;;;;;;3.67;2.97;;;;;;;;;;5074205;28;20136;-75
2023/07/27 10:27:58;;;;;;;3.42;2.63;;;;;;;;;;5054336;28;20049;-75
2023/07/27 10:30:24;;;;;;;3.60;2.70;;;;;;;;;;5071492;28;20044;-75
2023/07/27 10:33:08;;;;;;;3.33;2.97;;;;;;;;;;5090450;28;20046;-77
2023/07/27 10:36:01;;;;;;;3.80;2.60;;;;;;;;;;5072006;28;20511;-75
2023/07/27 10:38:27;;;;;;;4.90;3.50;;;;;;;;;;5090825;28;20510;-74
2023/07/27 10:40:53;;;;;;;4.97;3.30;;;;;;;;;;5092448;28;20044;-74
2023/07/27 10:43:19;;;;;;;5.15;3.22;;;;;;;;;;5091544;28;20461;-74
2023/07/27 10:45:52;;;;;;;4.50;3.25;;;;;;;;;;5088973;28;20404;-74
2023/07/27 10:48:18;;;;;;;4.13;3.10;;;;;;;;;;5089362;28;20062;-75
2023/07/27 10:50:45;;;;;;;3.90;3.25;;;;;;;;;;5072664;28;20046;-75
2023/07/27 10:53:11;;;;;;;4.50;3.60;;;;;;;;;;5092380;28;20051;-75
2023/07/27 10:55:38;;;;;;;3.75;3.25;;;;;;;;;;5092122;28;20433;-75
2023/07/27 10:58:05;;;;;;;4.00;3.40;;;;;;;;;;5092391;28;20056;-76
2023/07/27 11:00:38;;;;;;;3.80;3.30;;;;;;;;;;5092022;28;20036;-74
2023/07/27 11:03:04;;;;;;;4.75;3.72;;;;;;;;;;5092165;28;20040;-75
2023/07/27 11:05:30;;;;;;;4.28;3.20;;;;;;;;;;5092048;28;20044;-75
2023/07/27 11:08:05;;;;;;;4.30;3.72;;;;;;;;;;5092312;28;20184;-76
2023/07/27 11:10:32;;;;;;;4.55;3.55;;;;;;;;;;5074341;28;20401;-76
2023/07/27 11:12:59;;;;;;;3.80;3.40;;;;;;;;;;5092317;28;20044;-76
2023/07/27 11:15:26;;;;;;;4.30;3.88;;;;;;;;;;5073815;28;20036;-75
2023/07/27 11:17:53;;;;;;;4.65;3.80;;;;;;;;;;5092110;28;20397;-75
2023/07/27 11:20:21;;;;;;;4.47;3.78;;;;;;;;;;5092392;28;20074;-75
2023/07/27 11:22:47;;;;;;;4.55;4.10;;;;;;;;;;5092137;28;20122;-75
2023/07/27 11:25:13;;;;;;;5.30;4.65;;;;;;;;;;5091587;28;20044;-75
2023/07/27 11:27:39;;;;;;;5.18;4.68;;;;;;;;;;5073671;28;20377;-75
2023/07/27 11:30:09;;;;;;;5.78;4.13;;;;;;;;;;5092150;28;20157;-75
2023/07/27 11:32:35;;;;;;;7.70;5.18;;;;;;;;;;5092168;28;20048;-75
2023/07/27 11:35:01;;;;;;;7.32;6.07;;;;;;;;;;5091604;28;20164;-75
2023/07/27 11:37:30;;;;;;;10.23;7.13;;;;;;;;;;5091820;28;20417;-75
2023/07/27 11:39:57;;;;;;;8.02;6.00;;;;;;;;;;5073407;28;20555;-75
2023/07/27 11:42:30;;;;;;;8.65;6.60;;;;;;;;;;5091831;28;20047;-75
2023/07/27 11:44:57;;;;;;;7.70;6.70;;;;;;;;;;5091531;28;20062;-74
2023/07/27 11:47:23;;;;;;;8.75;6.35;;;;;;;;;;5075032;28;20040;-75
2023/07/27 11:49:50;;;;;;;6.72;5.63;;;;;;;;;;5077179;28;20036;-75
2023/07/27 11:52:20;;;;;;;9.70;5.80;;;;;;;;;;5095745;28;20039;-75
2023/07/27 11:54:51;;;;;;;5.63;5.13;;;;;;;;;;5060585;28;20044;-75
2023/07/27 11:57:18;;;;;;;6.88;5.20;;;;;;;;;;5095681;28;20090;-75
2023/07/27 12:00:04;;;;;;;6.18;5.57;;;;;;;;;;5095468;28;20044;-75
2023/07/27 12:02:33;;;;;;;;;;;;;;;;;;5096310;28;20047;-76
2023/07/27 12:05:00;;;;;;;9.00;6.03;;;;;;;;;;5095134;28;19955;-75
2023/07/27 12:07:35;;;;;;;8.15;5.65;;;;;;;;;;5095773;28;20109;-74
2023/07/27 12:10:01;;;;;;;7.10;5.10;;;;;;;;;;5095410;28;20048;-74
2023/07/27 12:12:28;;;;;;;7.07;5.90;;;;;;;;;;5095347;28;20138;-76
2023/07/27 12:14:55;;;;;;;6.80;5.60;;;;;;;;;;5080380;28;20051;-73
2023/07/27 12:17:25;;;;;;;7.70;5.20;;;;;;;;;;5100060;28;20062;-75
2023/07/27 12:19:51;;;;;;;6.78;5.72;;;;;;;;;;5095645;28;20382;-74
2023/07/27 12:22:18;;;;;;;7.28;5.78;;;;;;;;;;5094576;28;20047;-75
2023/07/27 12:24:45;;;;;;;7.53;5.38;;;;;;;;;;5075893;28;20051;-74
2023/07/27 12:27:11;;;;;;;7.93;5.30;;;;;;;;;;5095209;28;20044;-74
2023/07/27 12:29:38;;;;;;;6.43;5.30;;;;;;;;;;5094858;28;20043;-75
2023/07/27 12:32:04;;;;;;;6.18;5.43;;;;;;;;;;5095118;28;20131;-75
2023/07/27 12:34:30;;;;;;;5.50;4.53;;;;;;;;;;5094401;28;20079;-75
2023/07/27 12:36:56;;;;;;;5.80;4.53;;;;;;;;;;5093802;28;20433;-75
2023/07/27 12:39:23;;;;;;;4.93;4.10;;;;;;;;;;5095017;28;20488;-75
2023/07/27 12:41:49;;;;;;;5.57;4.25;;;;;;;;;;5095380;28;20040;-74
2023/07/27 12:44:15;;;;;;;6.28;4.15;;;;;;;;;;5075296;28;20390;-75
2023/07/27 12:46:42;;;;;;;4.68;4.00;;;;;;;;;;5056216;28;20059;-75
2023/07/27 12:49:08;;;;;;;5.38;4.22;;;;;;;;;;5074270;28;20649;-76
2023/07/27 12:51:34;;;;;;;5.25;4.00;;;;;;;;;;5074221;28;20040;-76
2023/07/27 12:54:04;;;;;;;4.75;3.88;;;;;;;;;;5073037;28;20044;-76
2023/07/27 12:56:30;;;;;;;6.30;4.25;;;;;;;;;;5074118;28;20524;-75
2023/07/27 12:58:56;;;;;;;5.63;4.30;;;;;;;;;;5073359;28;20138;-76
2023/07/27 13:01:22;;;;;;;4.90;3.70;;;;;;;;;;5074561;28;20364;-76
2023/07/27 13:03:48;;;;;;;6.28;3.55;;;;;;;;;;5073819;28;20052;-76
2023/07/27 13:06:14;;;;;;;3.67;2.90;;;;;;;;;;5056225;28;20084;-76
2023/07/27 13:08:40;;;;;;;5.32;2.38;;;;;;;;;;5072566;28;20460;-76
2023/07/27 13:11:06;;;;;;;3.13;2.45;;;;;;;;;;5054249;28;20040;-76
2023/07/27 13:13:32;;;;;;;3.15;2.42;;;;;;;;;;5073920;28;20048;-76
2023/07/27 13:15:58;;;;;;;3.20;2.22;;;;;;;;;;5073567;28;20103;-76
2023/07/27 13:18:25;;;;;;;3.30;2.13;;;;;;;;;;5073584;28;20485;-76
2023/07/27 13:20:51;;;;;;;4.68;2.40;;;;;;;;;;5073508;28;20049;-76
2023/07/27 13:23:17;;;;;;;3.30;2.15;;;;;;;;;;5055418;28;20044;-76
2023/07/27 13:25:43;;;;;;;3.13;2.13;;;;;;;;;;5073430;28;20049;-76
2023/07/27 13:28:09;;;;;;;2.50;1.98;;;;;;;;;;5055520;28;20504;-76
2023/07/27 13:30:35;;;;;;;3.00;1.90;;;;;;;;;;5089635;28;20504;-76
2023/07/27 13:33:01;;;;;;;3.60;1.98;;;;;;;;;;5093913;28;20036;-76
2023/07/27 13:35:27;;;;;;;3.78;2.00;;;;;;;;;;5092631;28;20137;-76
2023/07/27 13:37:54;;;;;;;2.97;2.15;;;;;;;;;;5093477;28;20055;-76
2023/07/27 13:40:20;;;;;;;3.92;2.33;;;;;;;;;;5093450;28;20040;-76
2023/07/27 13:42:47;;;;;;;3.13;2.13;;;;;;;;;;5092693;28;20075;-74
2023/07/27 13:45:13;;;;;;;3.60;2.53;;;;;;;;;;5092924;28;20091;-75
2023/07/27 13:47:39;;;;;;;2.63;1.80;;;;;;;;;;5093016;28;20048;-75
2023/07/27 13:50:05;;;;;;;2.90;2.20;;;;;;;;;;5093114;28;20131;-74
2023/07/27 13:52:32;;;;;;;3.95;1.95;;;;;;;;;;5093178;28;20075;-75
2023/07/27 13:54:58;;;;;;;2.55;1.80;;;;;;;;;;5092509;28;20089;-75
2023/07/27 13:57:24;;;;;;;2.58;2.00;;;;;;;;;;5074904;28;20051;-75
2023/07/27 13:59:50;;;;;;;2.65;1.90;;;;;;;;;;5092782;28;20094;-76
2023/07/27 14:02:16;;;;;;;2.67;1.75;;;;;;;;;;5092706;28;20393;-76
2023/07/27 14:04:42;;;;;;;2.85;1.90;;;;;;;;;;5090882;28;20212;-76
2023/07/27 14:07:09;;;;;;;3.20;2.10;;;;;;;;;;5091970;28;20530;-75
2023/07/27 14:09:36;;;;;;;3.13;2.05;;;;;;;;;;5092336;28;20052;-75
2023/07/27 14:12:03;;;;;;;3.72;2.17;;;;;;;;;;5092813;28;20492;-76
2023/07/27 14:14:29;;;;;;;3.92;1.70;;;;;;;;;;5092721;28;20157;-75
2023/07/27 14:16:55;;;;;;;2.05;1.70;;;;;;;;;;5092481;28;20048;-75
2023/07/27 14:19:21;;;;;;;2.38;1.70;;;;;;;;;;5074175;28;20054;-75
2023/07/27 14:21:47;;;;;;;2.30;1.80;;;;;;;;;;5092606;28;20051;-75
2023/07/27 14:24:13;;;;;;;2.70;1.73;;;;;;;;;;5083640;28;20056;-75
2023/07/27 14:26:40;;;;;;;2.40;1.80;;;;;;;;;;5074240;28;20067;-74
2023/07/27 14:29:06;;;;;;;2.63;1.50;;;;;;;;;;5091961;28;20047;-74
2023/07/27 14:31:32;;;;;;;3.20;1.40;;;;;;;;;;5091367;28;20046;-75
2023/07/27 14:34:02;;;;;;;1.60;1.50;;;;;;;;;;5091531;28;20047;-76
2023/07/27 14:36:28;;;;;;;1.58;1.38;;;;;;;;;;5090730;28;20044;-75